Time;durP1;ratioP1;P1;durP2;ratioP2;P2;SDS_P1;SDS_P2;PMS_P1;PMS_P2;Temp;Humidity;BMP_temperature;BMP_pressure;BME280_temperature;BME280_humidity;BME280_pressure;Samples;Min_cycle;Max_cycle;Signal;HPM_P1;HPM_P2
2023/05/07 00:15:41;;;;;;;;;;;;;;;23.12;46.61;100309.69;41566407;28;19929;-85
2023/05/07 00:35:48;;;;;;;;;;;;;;;23.11;46.95;100323.03;41531650;28;19959;-89
2023/05/07 00:55:48;;;;;;;;;;;;;;;23.09;47.06;100327.59;41566054;28;21392;-87
2023/05/07 01:15:49;;;;;;;;;;;;;;;23.10;46.90;100326.63;41590030;28;19920;-86
2023/05/07 01:35:51;;;;;;;;;;;;;;;23.09;47.15;100333.69;41588863;28;20364;-89
2023/05/07 01:55:51;;;;;;;;;;;;;;;23.05;47.09;100327.03;41496314;28;20016;-89
2023/05/07 02:15:53;;;;;;;;;;;;;;;23.05;47.24;100311.19;41562694;28;20443;-88
2023/05/07 02:35:53;;;;;;;;;;;;;;;23.01;47.26;100307.97;41556420;28;19944;-86
2023/05/07 02:55:54;;;;;;;;;;;;;;;23.00;47.17;100308.94;41567486;28;19921;-85
2023/05/07 03:15:55;;;;;;;;;;;;;;;23.01;47.31;100317.72;41589607;28;19925;-88
2023/05/07 03:35:55;;;;;;;;;;;;;;;22.96;47.22;100314.59;41599008;28;19967;-88
2023/05/07 03:55:56;;;;;;;;;;;;;;;22.95;47.45;100319.06;41520512;28;20010;-92
2023/05/07 04:15:56;;;;;;;;;;;;;;;22.93;47.42;100334.19;41560760;28;19932;-90
2023/05/07 04:35:57;;;;;;;;;;;;;;;22.92;47.25;100352.81;41537837;28;21793;-91
2023/05/07 04:55:57;;;;;;;;;;;;;;;22.96;46.64;100351.56;41498842;28;20063;-85
2023/05/07 05:15:58;;;;;;;;;;;;;;;23.03;47.13;100364.13;41527117;28;19925;-83
2023/05/07 05:35:58;;;;;;;;;;;;;;;23.10;47.68;100380.28;41598821;28;19925;-84
2023/05/07 05:56:00;;;;;;;;;;;;;;;23.09;46.44;100349.56;41579438;28;19921;-83
2023/05/07 06:16:00;;;;;;;;;;;;;;;22.94;46.27;100350.88;41543634;28;19929;-80
2023/05/07 06:36:00;;;;;;;;;;;;;;;22.22;47.50;100366.50;41554498;28;19987;-80
2023/05/07 06:56:01;;;;;;;;;;;;;;;22.39;46.63;100362.50;41569272;28;19928;-85
2023/05/07 07:16:01;;;;;;;;;;;;;;;22.61;46.17;100374.72;41540577;28;19925;-88
2023/05/07 07:36:01;;;;;;;;;;;;;;;22.73;45.57;100388.69;41519044;28;19921;-84
2023/05/07 07:56:01;;;;;;;;;;;;;;;22.67;44.52;100392.69;41564099;28;19953;-85
2023/05/07 08:16:02;;;;;;;;;;;;;;;22.62;44.41;100400.16;41512417;28;19918;-84
2023/05/07 08:36:02;;;;;;;;;;;;;;;22.53;44.58;100390.34;41545469;28;19980;-81
2023/05/07 08:56:05;;;;;;;;;;;;;;;22.43;43.50;100379.72;41530694;28;19929;-85
2023/05/07 09:16:12;;;;;;;;;;;;;;;22.48;42.34;100382.81;41591650;28;19983;-84
2023/05/07 09:36:13;;;;;;;;;;;;;;;22.58;42.55;100380.25;41590043;28;19957;-86
2023/05/07 09:56:17;;;;;;;;;;;;;;;22.67;40.65;100379.47;41538458;28;19976;-83
2023/05/07 10:16:20;;;;;;;;;;;;;;;22.82;41.35;100382.63;41460566;28;19928;-81
2023/05/07 10:36:22;;;;;;;;;;;;;;;22.86;41.09;100375.28;41521145;28;19945;-80
2023/05/07 10:56:22;;;;;;;;;;;;;;;22.94;41.77;100377.28;41547802;28;19928;-81
2023/05/07 11:16:23;;;;;;;;;;;;;;;22.96;41.59;100378.84;41613614;28;20719;-81
2023/05/07 11:36:24;;;;;;;;;;;;;;;23.11;42.73;100366.13;41616339;28;19921;-80
2023/05/07 11:56:26;;;;;;;;;;;;;;;23.24;42.66;100359.78;41608467;28;19925;-81
2023/05/07 12:16:28;;;;;;;;;;;;;;;23.39;42.56;100337.34;41596003;28;19931;-86
2023/05/07 12:36:36;;;;;;;;;;;;;;;23.44;43.22;100343.03;41522189;28;20300;-87
2023/05/07 12:56:36;;;;;;;;;;;;;;;23.67;43.74;100327.78;41620272;28;19932;-87
2023/05/07 13:16:37;;;;;;;;;;;;;;;23.86;44.33;100323.50;41600958;28;19925;-86
2023/05/07 13:36:39;;;;;;;;;;;;;;;24.07;44.29;100307.53;41607833;28;19936;-87
2023/05/07 13:56:40;;;;;;;;;;;;;;;24.16;45.10;100295.28;41589171;28;19932;-88
2023/05/07 14:16:41;;;;;;;;;;;;;;;24.32;44.96;100289.41;41591173;28;20300;-87
2023/05/07 14:36:41;;;;;;;;;;;;;;;24.60;44.64;100306.19;41624013;28;19921;-90
2023/05/07 14:56:42;;;;;;;;;;;;;;;25.02;43.79;100309.44;41561217;28;19929;-91
2023/05/07 15:16:42;;;;;;;;;;;;;;;25.46;43.08;100314.94;41580827;28;19952;-89
2023/05/07 15:36:42;;;;;;;;;;;;;;;25.85;42.08;100309.38;41559750;28;19925;-83
2023/05/07 15:56:43;;;;;;;;;;;;;;;26.14;41.80;100296.88;41591730;28;19999;-85
2023/05/07 16:16:44;;;;;;;;;;;;;;;25.74;42.93;100312.25;41614425;28;19932;-87
2023/05/07 16:36:44;;;;;;;;;;;;;;;25.23;35.82;100311.81;41569503;28;20044;-88
2023/05/07 16:56:44;;;;;;;;;;;;;;;24.69;38.54;100315.09;41564532;28;19971;-85
2023/05/07 17:16:45;;;;;;;;;;;;;;;24.65;40.73;100334.06;41616580;28;20423;-81
2023/05/07 17:36:45;;;;;;;;;;;;;;;24.45;42.39;100355.28;41550205;28;20032;-83
2023/05/07 17:56:46;;;;;;;;;;;;;;;24.42;42.50;100385.47;41541059;28;20402;-88
2023/05/07 18:16:46;;;;;;;;;;;;;;;24.42;43.25;100417.25;41567392;28;19949;-87
2023/05/07 18:36:48;;;;;;;;;;;;;;;24.41;44.14;100455.28;41579410;28;20011;-86
2023/05/07 18:56:49;;;;;;;;;;;;;;;24.40;43.87;100492.47;41608892;28;19921;-88
2023/05/07 19:16:49;;;;;;;;;;;;;;;24.36;43.96;100542.19;41597912;28;19967;-86
2023/05/07 19:36:50;;;;;;;;;;;;;;;24.30;44.05;100585.06;41602544;28;19948;-84
2023/05/07 19:56:50;;;;;;;;;;;;;;;24.28;44.09;100624.06;41597304;28;20394;-80
2023/05/07 20:16:51;;;;;;;;;;;;;;;24.16;43.99;100644.50;41592449;28;19926;-80
2023/05/07 20:36:52;;;;;;;;;;;;;;;24.09;44.11;100667.16;41562691;28;19922;-81
2023/05/07 20:56:53;;;;;;;;;;;;;;;24.00;44.46;100670.56;41567355;28;19924;-82
2023/05/07 21:16:59;;;;;;;;;;;;;;;23.93;44.46;100681.66;41528871;28;20024;-84
2023/05/07 21:36:59;;;;;;;;;;;;;;;23.86;44.68;100696.34;41565770;28;19972;-82
2023/05/07 21:57:01;;;;;;;;;;;;;;;23.77;44.46;100727.06;41556160;28;19995;-81
2023/05/07 22:17:01;;;;;;;;;;;;;;;23.70;44.54;100744.38;41662260;28;20412;-79
2023/05/07 22:37:02;;;;;;;;;;;;;;;23.66;44.00;100746.44;41592100;28;19928;-81
2023/05/07 22:57:03;;;;;;;;;;;;;;;23.58;43.65;100745.41;41552990;28;19936;-83
2023/05/07 23:17:03;;;;;;;;;;;;;;;23.53;43.78;100764.28;41630866;28;19932;-82
2023/05/07 23:37:03;;;;;;;;;;;;;;;23.47;43.34;100748.91;41596538;28;19929;-81
2023/05/07 23:57:04;;;;;;;;;;;;;;;23.41;43.22;100752.91;41624060;28;19929;-79
